Time;durP1;ratioP1;P1;durP2;ratioP2;P2;SDS_P1;SDS_P2;PMS_P1;PMS_P2;Temp;Humidity;BMP_temperature;BMP_pressure;BME280_temperature;BME280_humidity;BME280_pressure;Samples;Min_cycle;Max_cycle;Signal;HPM_P1;HPM_P2
2022/01/05 00:01:38;;;;;;;11.57;1.75;;;;;;;4.26;96.27;99989.00;5033339;28;20049;-34
2022/01/05 00:04:06;;;;;;;11.45;1.83;;;;;;;4.28;97.20;99984.03;5032434;28;20038;-36
2022/01/05 00:06:34;;;;;;;13.65;2.22;;;;;;;4.29;98.17;99971.06;5033222;28;20594;-39
2022/01/05 00:09:03;;;;;;;10.85;1.70;;;;;;;4.33;98.96;99970.22;5032889;28;20391;-38
2022/01/05 00:11:31;;;;;;;11.05;2.13;;;;;;;4.35;99.55;99968.03;5032398;28;20132;-36
2022/01/05 00:13:59;;;;;;;15.23;1.60;;;;;;;4.39;99.38;99969.13;5032997;28;20065;-31
2022/01/05 00:16:26;;;;;;;10.07;1.80;;;;;;;4.42;99.32;99964.94;5033018;28;20517;-32
2022/01/05 00:18:54;;;;;;;15.15;2.45;;;;;;;4.42;98.96;99970.47;5032164;28;20041;-36
2022/01/05 00:21:22;;;;;;;12.82;2.10;;;;;;;4.44;100.00;99960.78;5032662;28;20132;-37
2022/01/05 00:23:50;;;;;;;11.55;2.17;;;;;;;4.46;99.74;99964.09;5033113;28;20120;-37
2022/01/05 00:26:19;;;;;;;17.40;2.38;;;;;;;4.46;99.34;99952.22;5032073;28;20049;-39
2022/01/05 00:28:47;;;;;;;10.52;1.80;;;;;;;4.44;98.91;99946.16;5032807;28;20045;-31
2022/01/05 00:31:15;;;;;;;13.95;1.98;;;;;;;4.43;98.64;99959.13;5032707;28;20084;-31
2022/01/05 00:33:43;;;;;;;11.65;1.85;;;;;;;4.43;99.22;99947.25;5031764;28;20141;-32
2022/01/05 00:36:10;;;;;;;15.98;2.15;;;;;;;4.42;97.90;99957.47;5032437;28;20522;-34
2022/01/05 00:38:38;;;;;;;12.07;2.10;;;;;;;4.43;98.11;99953.63;5032397;28;20045;-38
2022/01/05 00:41:06;;;;;;;12.18;2.03;;;;;;;4.46;97.85;99955.81;5031804;28;20101;-36
2022/01/05 00:43:35;;;;;;;11.73;2.15;;;;;;;4.48;97.69;99948.09;5032457;28;20049;-38
2022/01/05 00:46:04;;;;;;;12.85;2.17;;;;;;;4.46;96.77;99950.28;5031498;28;20152;-34
2022/01/05 00:48:32;;;;;;;14.38;2.10;;;;;;;4.48;95.81;99950.00;5032042;28;20384;-35
2022/01/05 00:51:02;;;;;;;16.17;2.33;;;;;;;4.50;96.81;99934.00;5032095;28;20046;-38
2022/01/05 00:53:30;;;;;;;14.25;2.33;;;;;;;4.54;98.00;99942.56;5031562;28;20475;-38
2022/01/05 00:55:58;;;;;;;13.25;1.90;;;;;;;4.57;98.28;99937.28;5032127;28;20415;-32
2022/01/05 00:58:26;;;;;;;13.63;1.90;;;;;;;4.58;97.59;99946.41;5031816;28;20057;-38
2022/01/05 01:00:56;;;;;;;11.93;1.67;;;;;;;4.58;97.00;99943.66;5030857;28;20490;-35
2022/01/05 01:03:27;;;;;;;10.45;1.80;;;;;;;4.56;96.87;99960.50;5032161;28;20049;-37
2022/01/05 01:05:55;;;;;;;9.27;1.60;;;;;;;4.55;96.25;99958.84;5014622;28;20053;-39
2022/01/05 01:08:23;;;;;;;20.27;2.60;;;;;;;4.54;96.96;99945.31;5031336;28;20050;-37
2022/01/05 01:10:51;;;;;;;15.60;1.67;;;;;;;4.56;97.07;99954.16;5031570;28;20049;-41
2022/01/05 01:13:19;;;;;;;12.63;2.15;;;;;;;4.54;97.92;99940.63;5031790;28;20056;-41
2022/01/05 01:15:49;;;;;;;14.50;2.53;;;;;;;4.55;97.59;99936.75;5031020;28;20064;-35
2022/01/05 01:18:19;;;;;;;16.25;2.83;;;;;;;4.57;98.04;99934.53;5031944;28;20136;-37
2022/01/05 01:20:48;;;;;;;18.88;2.50;;;;;;;4.60;99.28;99949.69;5031946;28;20068;-34
2022/01/05 01:23:18;;;;;;;13.65;2.30;;;;;;;4.63;100.00;99938.06;5030604;28;20064;-35
2022/01/05 01:25:46;;;;;;;16.27;1.88;;;;;;;4.65;98.25;99944.16;5031702;28;20049;-36
2022/01/05 01:28:14;;;;;;;12.70;2.05;;;;;;;4.64;97.11;99950.78;5031284;28;20045;-36
2022/01/05 01:30:41;;;;;;;15.48;2.35;;;;;;;4.63;96.47;99941.66;5031200;28;20426;-40
2022/01/05 01:33:09;;;;;;;10.55;1.70;;;;;;;4.63;96.23;99936.13;5031678;28;20049;-43
2022/01/05 01:35:39;;;;;;;13.82;2.08;;;;;;;4.65;96.28;99938.63;5030680;28;20057;-32
2022/01/05 01:38:07;;;;;;;13.73;1.73;;;;;;;4.64;96.13;99943.31;5013397;28;20132;-35
2022/01/05 01:40:35;;;;;;;11.18;1.70;;;;;;;4.65;95.21;99946.91;5030989;28;20061;-34
2022/01/05 01:43:02;;;;;;;12.73;2.03;;;;;;;4.67;95.53;99944.69;5030901;28;20060;-42
2022/01/05 01:45:30;;;;;;;16.42;1.98;;;;;;;4.68;96.30;99929.78;5031587;28;20384;-35
2022/01/05 01:47:58;;;;;;;12.88;1.90;;;;;;;4.68;95.32;99943.59;5031652;28;20132;-31
2022/01/05 01:50:26;;;;;;;11.68;1.90;;;;;;;4.72;94.88;99925.34;5030573;28;20060;-41
2022/01/05 01:52:55;;;;;;;14.10;1.77;;;;;;;4.74;95.68;99935.00;5031178;28;20060;-38
2022/01/05 01:55:23;;;;;;;14.35;2.63;;;;;;;4.77;95.16;99930.84;5031439;28;20137;-38
2022/01/05 01:57:51;;;;;;;11.02;1.60;;;;;;;4.80;94.55;99936.63;5030366;28;20053;-34
2022/01/05 02:00:19;;;;;;;10.93;1.48;;;;;;;4.84;94.86;99939.63;5031280;28;20053;-37
2022/01/05 02:02:47;;;;;;;13.63;2.05;;;;;;;4.88;95.25;99928.84;5031290;28;20416;-36
2022/01/05 02:05:15;;;;;;;16.20;1.80;;;;;;;4.89;96.09;99945.16;5030491;28;20144;-39
2022/01/05 02:07:42;;;;;;;15.15;1.95;;;;;;;4.92;95.89;99947.34;5031083;28;20046;-38
2022/01/05 02:10:12;;;;;;;10.52;2.05;;;;;;;4.97;96.61;99939.03;5031390;28;20045;-35
2022/01/05 02:12:40;;;;;;;12.52;1.95;;;;;;;4.99;97.55;99938.75;5030183;28;20420;-36
2022/01/05 02:15:09;;;;;;;12.10;1.80;;;;;;;5.02;97.60;99940.94;5031257;28;20053;-40
2022/01/05 02:17:46;;;;;;;16.88;2.33;;;;;;;5.03;98.58;99935.13;5030150;28;20064;-36
2022/01/05 02:20:16;;;;;;;11.15;1.95;;;;;;;5.03;98.35;99940.63;5030907;28;20069;-37
2022/01/05 02:22:47;;;;;;;11.43;1.60;;;;;;;5.03;97.18;99937.88;5031121;28;20099;-37
2022/01/05 02:25:15;;;;;;;11.90;1.75;;;;;;;5.04;97.22;99936.75;5030407;28;20046;-37
2022/01/05 02:27:45;;;;;;;10.43;1.58;;;;;;;5.06;95.34;99944.78;5031000;28;20046;-32
2022/01/05 02:30:18;;;;;;;12.25;2.03;;;;;;;5.06;94.20;99942.84;5031092;28;20411;-39
2022/01/05 02:32:47;;;;;;;10.18;1.70;;;;;;;5.08;94.47;99940.63;5030255;28;20147;-36
2022/01/05 02:35:14;;;;;;;9.52;1.63;;;;;;;5.11;95.09;99933.69;5030891;28;20056;-32
2022/01/05 02:37:43;;;;;;;9.73;2.20;;;;;;;5.13;95.58;99932.31;5030828;28;20571;-37
2022/01/05 02:40:16;;;;;;;9.05;2.22;;;;;;;5.15;95.76;99932.84;5030101;28;20077;-32
2022/01/05 02:42:44;;;;;;;12.00;1.92;;;;;;;5.17;96.00;99932.56;5030820;28;20037;-37
2022/01/05 02:45:14;;;;;;;13.00;1.75;;;;;;;5.17;96.00;99949.16;5030663;28;20041;-36
2022/01/05 02:47:42;;;;;;;12.32;1.90;;;;;;;5.18;96.38;99934.22;5030246;28;20491;-38
2022/01/05 02:50:13;;;;;;;11.85;1.80;;;;;;;5.19;97.72;99931.16;5030962;28;20045;-33
2022/01/05 02:52:41;;;;;;;10.75;2.10;;;;;;;5.19;98.12;99927.56;5033354;28;20052;-36
2022/01/05 02:55:10;;;;;;;12.43;2.10;;;;;;;5.17;96.56;99921.50;5034638;28;20064;-35
2022/01/05 02:57:39;;;;;;;12.77;1.90;;;;;;;5.15;97.78;99913.50;5034010;28;20132;-35
2022/01/05 03:00:09;;;;;;;15.77;2.28;;;;;;;5.19;98.53;99922.03;5033468;28;20060;-38
2022/01/05 03:02:37;;;;;;;11.88;2.72;;;;;;;5.17;97.66;99921.50;5034337;28;20053;-40
2022/01/05 03:05:05;;;;;;;9.82;1.80;;;;;;;5.16;97.75;99915.16;5034329;28;20054;-34
2022/01/05 03:07:38;;;;;;;14.75;1.95;;;;;;;5.13;98.26;99921.25;5033603;28;20050;-34
2022/01/05 03:10:08;;;;;;;9.57;2.00;;;;;;;5.13;98.33;99937.84;5034147;28;20045;-33
2022/01/05 03:12:39;;;;;;;11.60;1.65;;;;;;;5.12;97.85;99925.13;5034354;28;20049;-38
2022/01/05 03:15:08;;;;;;;14.73;1.92;;;;;;;5.11;98.61;99920.69;5033583;28;20053;-33
2022/01/05 03:17:36;;;;;;;12.18;2.22;;;;;;;5.13;98.56;99920.41;5034080;28;20053;-34
2022/01/05 03:20:06;;;;;;;13.07;1.90;;;;;;;5.15;99.69;99924.56;5034093;28;20045;-31
2022/01/05 03:22:34;;;;;;;13.13;2.00;;;;;;;5.18;100.00;99926.75;5032912;28;20049;-32
2022/01/05 03:25:02;;;;;;;16.63;2.00;;;;;;;5.19;100.00;99922.03;5033877;28;20084;-34
2022/01/05 03:27:30;;;;;;;17.58;2.25;;;;;;;5.20;100.00;99930.03;5034051;28;20053;-34
2022/01/05 03:29:59;;;;;;;11.32;1.60;;;;;;;5.20;100.00;99929.19;5032952;28;20057;-36
2022/01/05 03:32:32;;;;;;;11.60;2.13;;;;;;;5.20;100.00;99924.50;5033898;28;20045;-38
2022/01/05 03:35:00;;;;;;;21.23;2.45;;;;;;;5.24;100.00;99932.22;5032949;28;20045;-35
2022/01/05 03:37:27;;;;;;;17.80;2.30;;;;;;;5.26;100.00;99928.06;5033647;28;20041;-35
2022/01/05 03:39:55;;;;;;;15.43;3.17;;;;;;;5.28;100.00;99914.78;5033632;28;20518;-38
2022/01/05 03:42:23;;;;;;;13.77;2.65;;;;;;;5.29;100.00;99934.97;5033001;28;20049;-32
2022/01/05 03:44:51;;;;;;;15.77;2.17;;;;;;;5.30;100.00;99942.97;5033522;28;20053;-39
2022/01/05 03:47:20;;;;;;;19.50;2.70;;;;;;;5.34;100.00;99937.69;5033485;28;20053;-38
2022/01/05 03:49:47;;;;;;;18.10;2.53;;;;;;;5.35;100.00;99942.13;5032723;28;20093;-39
2022/01/05 03:52:15;;;;;;;16.92;2.40;;;;;;;5.36;100.00;99935.47;5033819;28;20041;-36
2022/01/05 03:54:43;;;;;;;18.70;2.90;;;;;;;5.36;100.00;99947.38;5033337;28;20056;-35
2022/01/05 03:57:11;;;;;;;9.90;2.10;;;;;;;5.37;100.00;99945.44;5032805;28;20062;-39
2022/01/05 03:59:38;;;;;;;14.15;2.25;;;;;;;5.36;100.00;99946.53;5015652;28;20053;-36
2022/01/05 04:02:06;;;;;;;13.98;2.40;;;;;;;5.35;100.00;99939.34;5015226;28;20045;-37
2022/01/05 04:04:35;;;;;;;18.50;2.78;;;;;;;5.37;100.00;99946.25;5032374;28;20060;-43
2022/01/05 04:07:03;;;;;;;12.70;2.17;;;;;;;5.37;100.00;99946.25;5033597;28;20501;-34
2022/01/05 04:09:31;;;;;;;20.13;3.05;;;;;;;5.40;100.00;99953.13;5033380;28;20059;-35
2022/01/05 04:12:00;;;;;;;14.95;2.10;;;;;;;5.41;100.00;99943.72;5032288;28;20505;-37
2022/01/05 04:14:27;;;;;;;12.38;2.13;;;;;;;5.42;100.00;99956.44;5032676;28;20348;-36
2022/01/05 04:16:55;;;;;;;20.20;2.80;;;;;;;5.42;100.00;99956.44;5032512;28;20410;-34
2022/01/05 04:19:23;;;;;;;18.10;1.80;;;;;;;5.45;100.00;99939.25;5032280;28;20453;-36
2022/01/05 04:21:52;;;;;;;16.08;2.50;;;;;;;5.44;100.00;99943.97;5033099;28;20057;-39
2022/01/05 04:24:20;;;;;;;13.38;2.10;;;;;;;5.44;100.00;99935.66;5032107;28;20057;-37
2022/01/05 04:26:48;;;;;;;17.60;2.50;;;;;;;5.44;100.00;99943.16;5032991;28;20051;-33
2022/01/05 04:29:16;;;;;;;13.52;1.90;;;;;;;5.44;100.00;99945.91;5032413;28;20049;-29
2022/01/05 04:31:45;;;;;;;18.40;2.53;;;;;;;5.45;100.00;99936.50;5031012;28;20049;-36
2022/01/05 04:34:13;;;;;;;16.50;2.28;;;;;;;5.42;100.00;99946.19;5032204;28;20557;-34
2022/01/05 04:37:03;;;;;;;17.95;2.35;;;;;;;5.42;100.00;99943.44;5032674;28;20076;-36
2022/01/05 04:39:31;;;;;;;16.30;2.65;;;;;;;5.43;100.00;99931.25;5032245;28;20045;-39
2022/01/05 04:41:58;;;;;;;17.35;2.50;;;;;;;5.43;100.00;99942.31;5032231;28;20059;-32
2022/01/05 04:44:26;;;;;;;16.23;2.45;;;;;;;5.42;100.00;99937.06;5032473;28;20486;-35
2022/01/05 04:46:54;;;;;;;20.10;2.88;;;;;;;5.42;100.00;99948.13;5031576;28;20046;-38
2022/01/05 04:49:22;;;;;;;17.13;2.47;;;;;;;5.42;100.00;99945.38;5032335;28;20049;-37
2022/01/05 04:51:50;;;;;;;18.75;2.72;;;;;;;5.40;100.00;99948.41;5031064;28;20068;-35
2022/01/05 04:54:19;;;;;;;16.45;2.80;;;;;;;5.44;100.00;99945.91;5031380;28;20526;-31
2022/01/05 04:56:47;;;;;;;19.60;2.70;;;;;;;5.45;100.00;99955.88;5032179;28;20143;-39
2022/01/05 04:59:14;;;;;;;23.90;3.50;;;;;;;5.41;100.00;99943.72;5032401;28;20049;-33
2022/01/05 05:01:42;;;;;;;17.52;2.65;;;;;;;5.34;100.00;99959.81;5032485;28;20049;-33
2022/01/05 05:04:10;;;;;;;16.77;2.63;;;;;;;5.30;100.00;99953.22;5032029;28;20049;-34
2022/01/05 05:06:38;;;;;;;19.48;2.72;;;;;;;5.26;100.00;99965.94;5031334;28;20443;-38
2022/01/05 05:09:06;;;;;;;22.23;3.38;;;;;;;5.26;100.00;99964.00;5031992;28;20064;-42
2022/01/05 05:11:35;;;;;;;22.00;3.17;;;;;;;5.27;100.00;99948.25;5032397;28;20071;-34
2022/01/05 05:14:03;;;;;;;23.73;2.80;;;;;;;5.28;100.00;99938.84;5030628;28;20394;-41
2022/01/05 05:16:31;;;;;;;17.35;2.60;;;;;;;5.29;100.00;99957.09;5032128;28;20050;-33
2022/01/05 05:18:58;;;;;;;17.83;2.55;;;;;;;5.28;100.00;99945.19;5031701;28;20411;-38
2022/01/05 05:21:26;;;;;;;19.30;3.08;;;;;;;5.30;100.00;99939.38;5031089;28;20049;-39
2022/01/05 05:23:54;;;;;;;17.92;2.67;;;;;;;5.29;100.00;99946.84;5031981;28;20060;-33
2022/01/05 05:26:22;;;;;;;19.02;3.10;;;;;;;5.32;100.00;99945.47;5031749;28;20528;-37
2022/01/05 05:28:51;;;;;;;12.15;2.20;;;;;;;5.33;100.00;99936.03;5031132;28;20058;-35
2022/01/05 05:31:19;;;;;;;15.82;2.50;;;;;;;5.34;100.00;99933.00;5014171;28;20058;-35
2022/01/05 05:33:47;;;;;;;20.52;2.65;;;;;;;5.36;100.00;99924.41;5031256;28;20049;-35
2022/01/05 05:36:15;;;;;;;21.15;4.10;;;;;;;5.40;100.00;99928.22;5030800;28;20083;-37
2022/01/05 05:38:43;;;;;;;30.77;4.45;;;;;;;5.44;100.00;99912.72;5031669;28;20053;-37
2022/01/05 05:41:10;;;;;;;21.58;3.05;;;;;;;5.49;100.00;99926.50;5031558;28;20079;-34
2022/01/05 05:43:38;;;;;;;19.67;3.15;;;;;;;5.51;100.00;99911.28;5030514;28;20156;-41
2022/01/05 05:46:07;;;;;;;27.70;3.97;;;;;;;5.54;100.00;99919.00;5031532;28;20053;-36
2022/01/05 05:48:37;;;;;;;23.40;3.13;;;;;;;5.58;100.00;99935.88;5030359;28;20045;-41
2022/01/05 05:51:05;;;;;;;23.55;3.40;;;;;;;5.63;100.00;99912.84;5031516;28;20053;-35
2022/01/05 05:53:33;;;;;;;22.65;3.65;;;;;;;5.66;100.00;99918.63;5031374;28;20053;-43
2022/01/05 05:56:00;;;;;;;24.08;3.60;;;;;;;5.70;100.00;99919.69;5030486;28;20049;-35
2022/01/05 05:58:28;;;;;;;23.45;2.90;;;;;;;5.70;100.00;99935.47;5031075;28;20064;-34
2022/01/05 06:00:56;;;;;;;23.75;3.60;;;;;;;5.66;100.00;99915.84;5030846;28;20048;-35
2022/01/05 06:03:25;;;;;;;26.77;3.85;;;;;;;5.66;100.00;99934.41;5030701;28;20050;-35
2022/01/05 06:05:53;;;;;;;23.23;3.08;;;;;;;5.62;100.00;99936.09;5031246;28;20049;-40
2022/01/05 06:08:22;;;;;;;18.92;3.08;;;;;;;5.58;100.00;99938.63;5031408;28;20071;-40
2022/01/05 06:10:49;;;;;;;17.98;2.85;;;;;;;5.59;100.00;99933.91;5030305;28;20045;-40
2022/01/05 06:13:17;;;;;;;23.10;3.20;;;;;;;5.59;100.00;99956.06;5031045;28;20130;-32
2022/01/05 06:15:45;;;;;;;21.02;2.97;;;;;;;5.57;100.00;99925.91;5030946;28;20151;-37
2022/01/05 06:18:13;;;;;;;20.13;3.03;;;;;;;5.57;100.00;99914.00;5030476;28;20049;-34
2022/01/05 06:20:42;;;;;;;20.95;3.03;;;;;;;5.54;100.00;99916.25;5030920;28;20072;-35
2022/01/05 06:23:09;;;;;;;19.67;2.88;;;;;;;5.50;100.00;99919.88;5030918;28;20049;-35
2022/01/05 06:25:37;;;;;;;25.55;3.03;;;;;;;5.51;100.00;99921.53;5031815;28;20499;-37
2022/01/05 06:28:08;;;;;;;25.08;3.92;;;;;;;5.53;100.00;99933.94;5033548;28;20056;-34
2022/01/05 06:30:36;;;;;;;23.65;3.65;;;;;;;5.57;100.00;99955.53;5034741;28;20045;-36
2022/01/05 06:33:04;;;;;;;25.55;3.88;;;;;;;5.53;100.00;99944.19;5033775;28;20411;-38
2022/01/05 06:35:32;;;;;;;20.48;2.30;;;;;;;5.53;100.00;99947.78;5034900;28;20049;-32
2022/01/05 06:38:01;;;;;;;22.10;2.97;;;;;;;5.51;100.00;99960.25;5033965;28;20053;-35
2022/01/05 06:40:29;;;;;;;23.63;3.53;;;;;;;5.49;100.00;99968.00;5034626;28;20053;-37
2022/01/05 06:42:59;;;;;;;22.15;3.67;;;;;;;5.45;100.00;99955.88;5034911;28;20142;-39
2022/01/05 06:45:26;;;;;;;27.33;3.20;;;;;;;5.44;100.00;99954.22;5034108;28;20060;-33
2022/01/05 06:47:55;;;;;;;19.92;2.92;;;;;;;5.42;100.00;99950.91;5034728;28;20041;-32
2022/01/05 06:50:22;;;;;;;20.42;3.15;;;;;;;5.41;100.00;99966.69;5034737;28;20041;-36
2022/01/05 06:52:50;;;;;;;23.15;2.60;;;;;;;5.40;100.00;99944.81;5033887;28;20499;-33
2022/01/05 06:55:19;;;;;;;20.05;3.50;;;;;;;5.42;100.00;99950.91;5034163;28;20053;-35
2022/01/05 06:57:47;;;;;;;24.65;3.90;;;;;;;5.43;100.00;99955.31;5033710;28;20144;-32
2022/01/05 07:00:15;;;;;;;30.38;4.40;;;;;;;5.48;100.00;99966.38;5033377;28;20061;-42
2022/01/05 07:02:43;;;;;;;24.30;3.15;;;;;;;5.51;100.00;99972.16;5033001;28;20466;-38
2022/01/05 07:05:11;;;;;;;27.23;3.97;;;;;;;5.56;100.00;99982.38;5033281;28;20100;-37
2022/01/05 07:07:39;;;;;;;26.50;3.75;;;;;;;5.63;100.00;99974.53;5032163;28;20061;-37
2022/01/05 07:10:09;;;;;;;29.85;4.00;;;;;;;5.69;100.00;99967.03;5033151;28;20045;-31
2022/01/05 07:12:39;;;;;;;20.75;4.10;;;;;;;5.72;100.00;99980.31;5032956;28;20177;-37
2022/01/05 07:15:08;;;;;;;24.30;3.47;;;;;;;5.74;100.00;99981.66;5032055;28;20072;-40
2022/01/05 07:17:35;;;;;;;28.05;4.18;;;;;;;5.80;100.00;99990.75;5032020;28;20476;-34
2022/01/05 07:20:05;;;;;;;22.05;3.55;;;;;;;5.80;100.00;99997.09;5029227;28;20045;-34
2022/01/05 07:22:33;;;;;;;23.33;3.92;;;;;;;5.81;100.00;100020.06;5030888;28;20061;-33
2022/01/05 07:25:00;;;;;;;27.25;3.10;;;;;;;5.78;100.00;100017.91;5032911;28;20064;-35
2022/01/05 07:27:28;;;;;;;23.48;3.25;;;;;;;5.71;100.00;100015.47;5032145;28;20046;-38
2022/01/05 07:29:57;;;;;;;19.23;2.75;;;;;;;5.64;100.00;100014.94;5031632;28;20060;-32
2022/01/05 07:32:26;;;;;;;17.90;2.85;;;;;;;5.59;100.00;100003.09;5032191;28;20548;-35
2022/01/05 07:34:55;;;;;;;22.92;3.28;;;;;;;5.57;100.00;100011.69;5031670;28;20406;-38
2022/01/05 07:37:24;;;;;;;29.00;3.72;;;;;;;5.60;100.00;100013.03;5031947;28;20492;-40
2022/01/05 07:39:52;;;;;;;25.20;3.92;;;;;;;5.66;100.00;100025.72;5032788;28;20076;-36
2022/01/05 07:42:20;;;;;;;28.60;4.00;;;;;;;5.70;100.00;100021.28;5031674;28;20049;-34
2022/01/05 07:44:48;;;;;;;24.50;3.58;;;;;;;5.74;100.00;100031.50;5031908;28;20049;-32
2022/01/05 07:47:17;;;;;;;26.98;4.30;;;;;;;5.78;100.00;100037.28;5031934;28;20061;-37
2022/01/05 07:49:45;;;;;;;23.48;4.32;;;;;;;5.82;100.00;100035.56;5030943;28;20183;-33
2022/01/05 07:52:13;;;;;;;29.27;3.80;;;;;;;5.80;100.00;100040.56;5031745;28;20052;-40
2022/01/05 07:54:41;;;;;;;23.95;3.55;;;;;;;5.77;100.00;100052.25;5031906;28;20057;-35
2022/01/05 07:57:09;;;;;;;17.50;3.42;;;;;;;5.73;100.00;100063.06;5030760;28;20527;-39
2022/01/05 07:59:37;;;;;;;24.10;3.60;;;;;;;5.72;100.00;100077.19;5031770;28;20111;-36
2022/01/05 08:02:05;;;;;;;25.17;3.50;;;;;;;5.69;100.00;100073.03;5030768;28;20051;-38
2022/01/05 08:04:35;;;;;;;21.33;2.78;;;;;;;5.66;100.00;100081.09;5030909;28;20108;-37
2022/01/05 08:07:03;;;;;;;24.20;3.78;;;;;;;5.64;100.00;100069.47;5031462;28;20037;-40
2022/01/05 08:09:31;;;;;;;23.88;3.13;;;;;;;5.65;100.00;100071.13;5030880;28;20160;-39
2022/01/05 08:11:59;;;;;;;28.45;3.25;;;;;;;5.68;100.00;100054.78;5030138;28;20072;-39
2022/01/05 08:14:27;;;;;;;26.27;4.10;;;;;;;5.72;100.00;100077.19;5030438;28;20475;-34
2022/01/05 08:16:55;;;;;;;29.73;4.13;;;;;;;5.72;100.00;100080.78;5030744;28;20049;-36
2022/01/05 08:19:22;;;;;;;32.53;3.97;;;;;;;5.77;100.00;100069.69;5031458;28;20040;-38
2022/01/05 08:21:51;;;;;;;29.95;3.97;;;;;;;5.79;100.00;100059.16;5029334;28;20053;-40
2022/01/05 08:24:19;;;;;;;37.72;4.97;;;;;;;5.84;100.00;100110.88;5030351;28;20060;-37
2022/01/05 08:26:47;;;;;;;27.48;4.15;;;;;;;5.87;100.00;100099.22;5030618;28;20050;-38
2022/01/05 08:29:14;;;;;;;23.98;3.80;;;;;;;5.82;100.00;100102.84;5031275;28;20041;-41
2022/01/05 08:31:42;;;;;;;26.42;3.40;;;;;;;5.76;100.00;100100.41;5030552;28;20057;-32
2022/01/05 08:34:11;;;;;;;22.05;3.97;;;;;;;5.73;100.00;100109.28;5030257;28;20074;-38
2022/01/05 08:36:39;;;;;;;17.23;2.47;;;;;;;5.66;100.00;100095.75;5030181;28;20045;-36
2022/01/05 08:39:08;;;;;;;21.95;2.42;;;;;;;5.65;100.00;100102.41;5029789;28;20055;-34
2022/01/05 08:41:37;;;;;;;24.50;3.58;;;;;;;5.67;100.00;100113.19;5030575;28;20053;-32
2022/01/05 08:44:05;;;;;;;30.77;4.43;;;;;;;5.71;100.00;100122.59;5031390;28;20057;-36
2022/01/05 08:46:33;;;;;;;33.58;4.28;;;;;;;5.71;100.00;100126.19;5030578;28;20103;-31
2022/01/05 08:49:01;;;;;;;31.40;4.40;;;;;;;5.70;100.00;100127.28;5030014;28;20060;-34
2022/01/05 08:51:28;;;;;;;22.35;3.45;;;;;;;5.71;100.00;100117.88;5030457;28;20053;-42
2022/01/05 08:53:56;;;;;;;37.33;5.10;;;;;;;5.76;100.00;100117.84;5031041;28;20049;-36
2022/01/05 08:56:25;;;;;;;25.75;4.07;;;;;;;5.82;100.00;100110.31;5031165;28;20034;-40
2022/01/05 08:58:54;;;;;;;27.95;4.22;;;;;;;5.86;100.00;100117.78;5029947;28;20058;-37
2022/01/05 09:01:23;;;;;;;33.17;5.75;;;;;;;5.91;100.00;100130.81;5030729;28;20049;-32
2022/01/05 09:03:52;;;;;;;37.15;5.22;;;;;;;5.98;100.00;100109.16;5030282;28;20052;-36
2022/01/05 09:06:20;;;;;;;40.13;5.72;;;;;;;6.04;100.00;100127.38;5029285;28;20800;-35
2022/01/05 09:08:47;;;;;;;23.95;3.92;;;;;;;6.11;100.00;100149.22;5030605;28;20406;-35
2022/01/05 09:11:19;;;;;;;29.90;3.78;;;;;;;6.16;100.00;100176.91;5031022;28;20155;-35
2022/01/05 09:13:49;;;;;;;19.75;3.20;;;;;;;6.12;100.00;100178.59;5030214;28;20045;-39
2022/01/05 09:16:17;;;;;;;28.02;3.95;;;;;;;6.05;100.00;100170.59;5030870;28;20045;-40
2022/01/05 09:18:45;;;;;;;23.13;3.67;;;;;;;6.00;100.00;100184.44;5030292;28;20049;-34
2022/01/05 09:21:13;;;;;;;20.30;3.35;;;;;;;5.98;100.00;100183.09;5027845;28;20049;-34
2022/01/05 09:23:43;;;;;;;26.42;4.32;;;;;;;6.01;100.00;100180.56;5030683;28;20045;-33
2022/01/05 09:26:10;;;;;;;27.65;4.57;;;;;;;6.05;100.00;100176.13;5030528;28;20063;-38
2022/01/05 09:28:43;;;;;;;36.42;4.63;;;;;;;6.09;100.00;100187.47;5029774;28;20060;-34
2022/01/05 09:31:12;;;;;;;;;;;;;;;6.13;100.00;100188.56;5031218;28;20045;-35
2022/01/05 09:33:40;;;;;;;27.90;4.18;;;;;;;6.16;100.00;100208.19;5029476;28;19921;-34
2022/01/05 09:36:14;;;;;;;32.53;4.80;;;;;;;6.24;100.00;100198.44;5030567;28;20049;-33
2022/01/05 09:44:13;;;;;;;24.88;4.60;;;;;;;6.37;100.00;100221.94;5030174;28;20049;-36
2022/01/05 09:47:02;;;;;;;31.73;4.90;;;;;;;6.45;100.00;100230.44;5030125;28;20050;-38
2022/01/05 09:49:35;;;;;;;21.42;3.33;;;;;;;6.50;100.00;100213.78;5029511;28;20045;-36
2022/01/05 09:52:05;;;;;;;32.13;4.53;;;;;;;6.58;100.00;100229.00;5030062;28;20065;-36
2022/01/05 09:54:34;;;;;;;30.48;4.50;;;;;;;6.64;100.00;100251.94;5030177;28;20046;-28
2022/01/05 09:57:03;;;;;;;24.67;3.45;;;;;;;6.56;100.00;100236.75;5029430;28;20065;-40
2022/01/05 09:59:34;;;;;;;31.48;4.55;;;;;;;6.48;100.00;100246.50;5029896;28;20046;-36
2022/01/05 10:02:03;;;;;;;26.83;4.07;;;;;;;6.43;100.00;100232.66;5029242;28;20053;-40
2022/01/05 10:04:32;;;;;;;28.80;3.92;;;;;;;6.43;100.00;100241.00;5029572;28;20083;-35
2022/01/05 10:07:00;;;;;;;27.02;3.83;;;;;;;6.46;100.00;100254.28;5029364;28;20053;-37
2022/01/05 10:09:28;;;;;;;22.83;4.03;;;;;;;6.52;100.00;100258.69;5027651;28;20056;-38
2022/01/05 10:11:56;;;;;;;30.65;4.28;;;;;;;6.54;100.00;100256.44;5029900;28;20403;-33
2022/01/05 10:14:23;;;;;;;24.67;4.55;;;;;;;6.62;100.00;100274.41;5029599;28;20564;-36
2022/01/05 10:17:04;;;;;;;24.45;3.72;;;;;;;6.85;100.00;100279.22;5029031;28;20046;-33
2022/01/05 10:19:33;;;;;;;26.83;3.65;;;;;;;7.11;100.00;100279.03;5029542;28;20052;-34
2022/01/05 10:22:02;;;;;;;24.70;3.63;;;;;;;7.28;100.00;100281.38;5027993;28;20133;-35
2022/01/05 10:24:45;;;;;;;24.55;3.22;;;;;;;7.39;100.00;100291.28;5028138;28;20132;-34
2022/01/05 10:27:18;;;;;;;29.17;4.25;;;;;;;7.51;100.00;100291.72;5028109;28;20056;-37
2022/01/05 10:29:55;;;;;;;18.33;3.45;;;;;;;7.55;100.00;100290.84;5029964;28;20058;-35
2022/01/05 10:32:25;;;;;;;22.05;3.50;;;;;;;7.56;100.00;100303.59;5029980;28;20168;-37
2022/01/05 10:35:09;;;;;;;22.75;3.97;;;;;;;7.55;100.00;100301.94;5029606;28;20506;-39
2022/01/05 10:37:39;;;;;;;26.83;4.47;;;;;;;7.54;100.00;100303.06;5028931;28;20475;-31
2022/01/05 10:40:19;;;;;;;32.55;4.88;;;;;;;7.53;100.00;100320.00;5029365;28;20049;-33
2022/01/05 10:42:49;;;;;;;25.98;4.32;;;;;;;7.50;100.00;100323.38;5029893;28;20053;-34
2022/01/05 10:45:18;;;;;;;24.25;3.63;;;;;;;7.46;100.00;100331.44;5029146;28;20052;-33
2022/01/05 10:50:41;;;;;;;22.63;3.88;;;;;;;7.57;100.00;100327.47;5087451;27;20389;-40
2022/01/05 10:53:14;;;;;;;22.42;3.80;;;;;;;7.71;100.00;100338.72;5086941;28;20060;-41
2022/01/05 10:55:43;;;;;;;18.23;3.63;;;;;;;7.84;100.00;100353.84;5087388;28;20135;-35
2022/01/05 10:58:15;;;;;;;24.15;4.07;;;;;;;7.90;100.00;100361.84;5086795;28;20044;-34
2022/01/05 11:00:45;;;;;;;28.83;4.13;;;;;;;7.99;100.00;100356.47;5086765;28;20055;-34
2022/01/05 11:03:28;;;;;;;28.90;3.80;;;;;;;8.03;100.00;100365.03;5087194;28;20094;-35
2022/01/05 11:06:08;;;;;;;21.70;3.83;;;;;;;8.00;100.00;100366.44;5085409;28;20052;-38
2022/01/05 11:08:49;;;;;;;23.20;3.42;;;;;;;7.93;100.00;100361.25;5086936;28;20056;-33
2022/01/05 11:11:37;;;;;;;30.42;4.93;;;;;;;7.89;100.00;100385.19;5086789;28;20697;-39
2022/01/05 11:14:06;;;;;;;26.05;4.20;;;;;;;7.85;100.00;100374.94;5086258;28;20314;-35
2022/01/05 11:16:38;;;;;;;24.48;4.38;;;;;;;7.85;100.00;100367.44;5087418;28;20052;-33
2022/01/05 11:19:15;;;;;;;24.35;4.13;;;;;;;7.82;100.00;100384.69;5086336;28;20044;-33
2022/01/05 11:22:05;;;;;;;22.55;3.90;;;;;;;7.78;100.00;100374.47;5085267;28;20052;-37
2022/01/05 11:24:35;;;;;;;24.30;4.07;;;;;;;7.73;100.00;100383.69;5087250;28;20052;-37
2022/01/05 11:27:05;;;;;;;27.90;4.32;;;;;;;7.75;100.00;100380.63;5086256;28;20448;-38
2022/01/05 11:29:34;;;;;;;30.63;5.13;;;;;;;7.77;100.00;100395.88;5087046;28;20040;-39
2022/01/05 11:32:04;;;;;;;25.63;3.83;;;;;;;7.81;100.00;100391.38;5086827;28;20056;-40
2022/01/05 11:34:32;;;;;;;19.80;3.42;;;;;;;7.83;100.00;100383.56;5086141;28;20070;-36
2022/01/05 11:37:07;;;;;;;27.13;4.38;;;;;;;7.84;100.00;100389.94;5086969;28;20074;-37
2022/01/05 11:39:41;;;;;;;24.80;4.65;;;;;;;7.87;100.00;100415.19;5087057;28;20044;-35
2022/01/05 11:42:13;;;;;;;21.67;3.80;;;;;;;7.84;100.00;100417.72;5086022;28;20040;-30